Time;durP1;ratioP1;P1;durP2;ratioP2;P2;SDS_P1;SDS_P2;PMS_P1;PMS_P2;Temp;Humidity;BMP_temperature;BMP_pressure;BME280_temperature;BME280_humidity;BME280_pressure;Samples;Min_cycle;Max_cycle;Signal;HPM_P1;HPM_P2
2022/04/08 00:02:13;;;;;;;1.30;0.60;;;11.30;37.10;;;;;;5033932;28;20282;-34
2022/04/08 00:04:39;;;;;;;2.47;0.70;;;11.40;37.00;;;;;;5034123;28;20162;-34
2022/04/08 00:07:05;;;;;;;1.87;1.07;;;11.40;36.90;;;;;;5034033;28;20223;-34
2022/04/08 00:09:30;;;;;;;1.83;0.77;;;11.40;36.60;;;;;;5033917;28;20440;-34
2022/04/08 00:11:57;;;;;;;1.73;1.17;;;11.40;37.10;;;;;;5033912;28;20185;-34
2022/04/08 00:14:23;;;;;;;1.10;0.60;;;11.50;36.90;;;;;;5033893;28;20949;-34
2022/04/08 00:16:49;;;;;;;1.90;1.00;;;11.60;37.00;;;;;;5033832;28;20536;-34
2022/04/08 00:19:15;;;;;;;1.27;0.77;;;11.70;36.80;;;;;;5033855;28;20188;-34
2022/04/08 00:21:41;;;;;;;4.30;0.70;;;11.80;36.70;;;;;;5033617;28;20177;-34
2022/04/08 00:24:07;;;;;;;1.67;0.70;;;11.70;36.20;;;;;;5033862;28;20411;-34
2022/04/08 00:26:33;;;;;;;2.30;0.65;;;11.70;36.20;;;;;;5033616;28;20174;-34
2022/04/08 00:28:59;;;;;;;1.90;0.93;;;11.60;36.60;;;;;;5040407;28;20724;-34
2022/04/08 00:31:25;;;;;;;2.03;1.50;;;11.60;36.30;;;;;;5045005;28;20193;-34
2022/04/08 00:33:50;;;;;;;1.55;0.77;;;11.60;36.00;;;;;;5053781;28;20512;-34
2022/04/08 00:36:16;;;;;;;5.03;1.30;;;11.60;35.50;;;;;;5053393;28;20224;-34
2022/04/08 00:38:42;;;;;;;1.20;0.50;;;11.80;35.00;;;;;;5053316;28;20182;-34
2022/04/08 00:41:08;;;;;;;2.40;0.70;;;11.70;34.20;;;;;;5053230;28;20170;-34
2022/04/08 00:43:38;;;;;;;2.05;0.70;;;11.70;33.90;;;;;;5053367;28;20207;-34
2022/04/08 00:46:06;;;;;;;1.45;0.50;;;11.70;34.50;;;;;;5053462;28;20200;-34
2022/04/08 00:48:32;;;;;;;1.42;0.80;;;11.90;33.30;;;;;;5053220;28;20169;-34
2022/04/08 00:50:59;;;;;;;1.50;0.63;;;11.90;32.10;;;;;;5053001;28;20539;-34
2022/04/08 00:53:25;;;;;;;1.65;0.90;;;11.90;32.10;;;;;;5051894;28;20455;-34
2022/04/08 00:55:51;;;;;;;1.40;0.70;;;11.90;31.80;;;;;;5053084;28;20718;-34
2022/04/08 00:58:17;;;;;;;1.77;0.75;;;11.90;30.80;;;;;;5053150;28;20169;-34
2022/04/08 01:00:43;;;;;;;1.90;1.33;;;12.00;31.20;;;;;;5052653;28;20264;-34
2022/04/08 01:03:09;;;;;;;1.10;0.50;;;11.90;30.50;;;;;;5053036;28;20400;-34
2022/04/08 01:05:35;;;;;;;1.73;1.10;;;12.00;30.20;;;;;;5052893;28;20420;-34
2022/04/08 01:08:02;;;;;;;1.63;0.70;;;12.00;29.90;;;;;;5053025;28;20166;-34
2022/04/08 01:10:28;;;;;;;1.55;0.50;;;12.00;29.80;;;;;;5052226;28;20216;-34
2022/04/08 01:12:54;;;;;;;1.10;0.47;;;12.00;30.10;;;;;;5052677;28;20166;-34
2022/04/08 01:15:21;;;;;;;1.77;0.73;;;11.90;29.70;;;;;;5052563;28;20856;-34
2022/04/08 01:17:47;;;;;;;4.85;1.10;;;11.90;29.90;;;;;;5052645;28;20657;-34
2022/04/08 01:20:14;;;;;;;1.40;0.65;;;11.80;29.50;;;;;;5052507;28;20263;-34
2022/04/08 01:22:40;;;;;;;4.43;0.90;;;11.80;29.90;;;;;;5052442;28;20192;-34
2022/04/08 01:25:08;;;;;;;1.63;0.93;;;11.80;29.20;;;;;;5052573;28;20175;-34
2022/04/08 01:27:37;;;;;;;2.22;0.70;;;11.90;29.40;;;;;;5052621;28;20193;-34
2022/04/08 01:30:05;;;;;;;2.03;0.80;;;11.80;29.90;;;;;;5052344;28;20215;-34
2022/04/08 01:32:30;;;;;;;1.80;0.90;;;11.70;29.70;;;;;;5052231;28;20249;-34
2022/04/08 01:34:56;;;;;;;1.33;0.93;;;11.70;29.80;;;;;;5051026;28;20265;-34
2022/04/08 01:37:22;;;;;;;1.10;0.50;;;11.70;30.30;;;;;;5052366;28;20563;-34
2022/04/08 01:39:48;;;;;;;1.30;0.80;;;11.80;30.00;;;;;;5052206;28;20185;-34
2022/04/08 01:42:14;;;;;;;1.20;0.70;;;11.70;30.50;;;;;;5052030;28;20891;-34
2022/04/08 01:44:40;;;;;;;6.80;0.77;;;11.70;31.00;;;;;;5052247;28;20659;-34
2022/04/08 01:47:06;;;;;;;2.45;0.88;;;11.60;31.40;;;;;;5052133;28;20774;-34
2022/04/08 01:49:32;;;;;;;1.27;1.00;;;12.70;32.30;;;;;;5052010;28;20188;-34
2022/04/08 01:51:59;;;;;;;4.55;1.48;;;11.70;31.90;;;;;;5051991;28;20404;-34
2022/04/08 01:54:24;;;;;;;1.17;0.40;;;11.60;32.50;;;;;;5052072;28;20258;-34
2022/04/08 01:56:50;;;;;;;3.73;0.60;;;11.60;32.70;;;;;;5052032;28;20229;-34
2022/04/08 01:59:16;;;;;;;1.30;0.60;;;11.70;33.20;;;;;;5052007;28;20216;-34
2022/04/08 02:01:42;;;;;;;1.50;0.70;;;11.70;32.70;;;;;;5046448;28;20623;-34
2022/04/08 02:04:08;;;;;;;1.27;0.88;;;11.70;33.10;;;;;;5042704;28;20723;-34
2022/04/08 02:06:36;;;;;;;2.70;0.87;;;11.70;33.60;;;;;;5032060;28;20281;-34
2022/04/08 02:09:02;;;;;;;1.40;0.70;;;11.60;34.00;;;;;;5031833;28;20483;-34
2022/04/08 02:11:28;;;;;;;1.10;0.45;;;11.60;34.00;;;;;;5031714;28;20300;-34
2022/04/08 02:13:54;;;;;;;2.63;0.60;;;11.60;33.90;;;;;;5032066;28;20204;-34
2022/04/08 02:16:20;;;;;;;1.60;0.90;;;11.50;34.10;;;;;;5032113;28;20452;-34
2022/04/08 02:18:45;;;;;;;1.70;0.90;;;11.40;34.30;;;;;;5031988;28;20712;-34
2022/04/08 02:21:11;;;;;;;1.80;1.13;;;11.50;34.50;;;;;;5031709;28;20162;-34
2022/04/08 02:23:38;;;;;;;1.10;0.50;;;11.50;34.20;;;;;;5033637;28;20189;-34
2022/04/08 02:26:07;;;;;;;1.20;0.60;;;11.40;34.70;;;;;;5035845;28;20251;-34
2022/04/08 02:28:33;;;;;;;1.52;0.90;;;11.40;34.00;;;;;;5035836;28;20200;-34
2022/04/08 02:30:59;;;;;;;1.40;0.90;;;11.40;34.10;;;;;;5035717;28;20604;-34
2022/04/08 02:33:25;;;;;;;1.30;0.60;;;11.40;34.40;;;;;;5035809;28;20253;-34
2022/04/08 02:35:50;;;;;;;1.30;0.70;;;11.50;34.00;;;;;;5035696;28;20197;-34
2022/04/08 02:38:16;;;;;;;2.00;0.80;;;11.50;33.80;;;;;;5035692;28;20586;-34
2022/04/08 02:40:42;;;;;;;1.70;0.83;;;11.50;33.90;;;;;;5035449;28;20881;-34
2022/04/08 02:43:08;;;;;;;1.40;0.80;;;11.40;34.30;;;;;;5073318;22;20224;-36
2022/04/08 02:45:33;;;;;;;1.30;0.50;;;11.30;34.50;;;;;;5075577;28;20440;-36
2022/04/08 02:47:59;;;;;;;4.10;1.00;;;11.30;34.30;;;;;;5075416;28;20812;-36
2022/04/08 02:50:25;;;;;;;2.80;1.30;;;11.30;34.60;;;;;;5075284;28;20169;-36
2022/04/08 02:52:51;;;;;;;3.43;1.00;;;11.30;34.30;;;;;;5069301;28;20189;-36
2022/04/08 02:55:16;;;;;;;1.37;0.50;;;11.20;34.70;;;;;;5055336;28;20168;-36
2022/04/08 02:57:46;;;;;;;2.67;0.73;;;11.10;35.00;;;;;;5055202;28;20538;-36
2022/04/08 03:00:19;;;;;;;3.15;1.10;;;11.20;35.10;;;;;;5055199;28;20431;-36
2022/04/08 03:02:46;;;;;;;1.50;0.65;;;11.40;34.50;;;;;;5055026;28;20221;-36
2022/04/08 03:05:13;;;;;;;1.20;0.47;;;11.30;34.40;;;;;;5055329;28;20177;-35
2022/04/08 03:07:39;;;;;;;2.00;0.85;;;11.20;35.00;;;;;;5054583;28;20404;-36
2022/04/08 03:10:08;;;;;;;1.85;0.65;;;11.10;35.20;;;;;;5055195;28;20643;-36
2022/04/08 03:12:34;;;;;;;1.30;0.82;;;11.20;35.30;;;;;;5054595;28;20205;-36
2022/04/08 03:15:00;;;;;;;2.43;0.90;;;11.30;35.10;;;;;;5054985;28;20165;-36
2022/04/08 03:17:26;;;;;;;1.10;0.40;;;11.20;35.00;;;;;;5054823;28;20451;-35
2022/04/08 03:19:52;;;;;;;1.30;0.73;;;11.20;35.10;;;;;;5054772;28;20410;-35
2022/04/08 03:22:20;;;;;;;1.20;0.70;;;11.20;35.30;;;;;;5054544;28;20396;-36
2022/04/08 03:24:52;;;;;;;1.20;0.80;;;11.20;35.00;;;;;;5054762;28;20517;-36
2022/04/08 03:27:18;;;;;;;1.40;0.90;;;11.10;35.10;;;;;;5055027;28;20165;-36
2022/04/08 03:29:44;;;;;;;1.60;1.03;;;11.10;35.20;;;;;;5054724;28;20178;-36
2022/04/08 03:32:11;;;;;;;1.85;0.65;;;11.00;35.10;;;;;;5054298;28;20490;-36
2022/04/08 03:34:37;;;;;;;1.40;0.60;;;11.00;35.50;;;;;;5054020;28;20235;-35
2022/04/08 03:37:03;;;;;;;2.10;0.95;;;11.00;35.40;;;;;;5054756;28;20197;-36
2022/04/08 03:39:29;;;;;;;1.40;0.80;;;11.10;35.50;;;;;;5054411;28;20216;-36
2022/04/08 03:41:54;;;;;;;4.13;1.03;;;11.10;35.50;;;;;;5054105;28;20189;-36
2022/04/08 03:44:20;;;;;;;1.87;1.30;;;11.10;35.80;;;;;;5054259;28;20634;-36
2022/04/08 03:46:46;;;;;;;1.37;0.60;;;11.10;35.90;;;;;;5054525;28;20423;-36
2022/04/08 03:49:16;;;;;;;1.95;0.80;;;11.00;36.10;;;;;;5054250;28;20184;-35
2022/04/08 03:51:46;;;;;;;1.20;0.50;;;11.00;36.30;;;;;;5054024;28;20264;-36
2022/04/08 03:54:12;;;;;;;1.77;0.95;;;10.90;36.40;;;;;;5054420;28;20205;-36
2022/04/08 03:56:41;;;;;;;1.33;0.95;;;10.80;36.50;;;;;;5054119;28;20197;-36
2022/04/08 03:59:10;;;;;;;1.30;0.60;;;10.70;36.70;;;;;;5054096;28;20173;-36
2022/04/08 04:01:36;;;;;;;1.30;0.70;;;10.80;36.80;;;;;;5053844;28;20262;-35
2022/04/08 04:04:03;;;;;;;2.30;1.05;;;10.80;36.30;;;;;;5054130;28;20216;-36
2022/04/08 04:06:29;;;;;;;2.28;0.82;;;10.80;36.20;;;;;;5054191;28;20180;-35
2022/04/08 04:08:55;;;;;;;1.05;0.30;;;10.80;36.30;;;;;;5053914;28;20180;-36
2022/04/08 04:11:21;;;;;;;1.30;0.80;;;10.90;36.30;;;;;;5053717;28;20181;-36
2022/04/08 04:13:48;;;;;;;1.30;0.50;;;10.80;36.20;;;;;;5053990;28;20200;-36
2022/04/08 04:16:14;;;;;;;2.72;0.98;;;10.90;36.30;;;;;;5053636;28;20196;-36
2022/04/08 04:18:40;;;;;;;3.35;1.00;;;10.90;36.10;;;;;;5053691;28;20256;-35
2022/04/08 04:21:05;;;;;;;1.10;0.50;;;10.90;36.20;;;;;;5053472;28;20257;-36
2022/04/08 04:23:33;;;;;;;1.20;0.70;;;10.90;36.30;;;;;;5053699;28;20482;-36
2022/04/08 04:25:59;;;;;;;2.75;0.70;;;10.90;36.10;;;;;;5053592;28;20473;-36
2022/04/08 04:28:29;;;;;;;1.55;0.90;;;10.90;36.30;;;;;;5053639;28;20174;-36
2022/04/08 04:30:55;;;;;;;1.75;0.80;;;10.90;36.50;;;;;;5053160;28;20650;-36
2022/04/08 04:33:20;;;;;;;1.10;0.43;;;10.80;36.40;;;;;;5053192;28;20209;-36
2022/04/08 04:35:46;;;;;;;1.70;0.73;;;10.80;36.40;;;;;;5053340;28;20201;-35
2022/04/08 04:38:12;;;;;;;1.20;0.60;;;10.60;36.90;;;;;;5053379;28;20172;-35
2022/04/08 04:40:37;;;;;;;2.30;1.27;;;10.70;36.90;;;;;;5053077;28;20169;-36
2022/04/08 04:43:03;;;;;;;3.07;0.80;;;10.70;36.70;;;;;;5053161;28;20258;-36
2022/04/08 04:45:29;;;;;;;2.27;1.00;;;10.70;36.40;;;;;;5052510;28;20415;-36
2022/04/08 04:47:54;;;;;;;1.30;0.67;;;10.70;36.90;;;;;;5053020;28;20169;-35
2022/04/08 04:50:20;;;;;;;2.10;0.83;;;10.80;36.80;;;;;;5052629;28;20173;-35
2022/04/08 04:52:46;;;;;;;1.70;1.07;;;10.70;36.60;;;;;;5051916;28;20193;-36
2022/04/08 04:55:11;;;;;;;3.33;1.30;;;10.60;36.70;;;;;;5053000;28;20212;-36
2022/04/08 04:57:39;;;;;;;2.73;1.10;;;10.60;36.80;;;;;;5052964;28;20187;-36
2022/04/08 05:00:06;;;;;;;1.95;0.70;;;10.60;37.30;;;;;;5052934;28;20185;-36
2022/04/08 05:02:32;;;;;;;1.60;0.77;;;10.60;37.20;;;;;;5052590;28;20193;-36
2022/04/08 05:04:58;;;;;;;1.33;0.70;;;10.60;37.20;;;;;;5053031;28;20231;-33
2022/04/08 05:07:25;;;;;;;1.30;0.77;;;10.70;37.20;;;;;;5052720;28;20400;-34
2022/04/08 05:09:50;;;;;;;1.50;0.70;;;10.70;37.30;;;;;;5053006;28;20181;-34
2022/04/08 05:12:16;;;;;;;1.30;0.70;;;10.70;37.50;;;;;;5052330;28;20173;-34
2022/04/08 05:14:42;;;;;;;1.40;0.83;;;10.90;37.00;;;;;;5052636;28;20215;-33
2022/04/08 05:17:07;;;;;;;1.60;1.00;;;10.90;37.20;;;;;;5052699;28;20235;-34
2022/04/08 05:19:33;;;;;;;1.20;0.57;;;10.90;37.10;;;;;;5052561;28;20531;-33
2022/04/08 05:21:59;;;;;;;1.50;0.90;;;10.90;37.70;;;;;;5052338;28;20174;-34
2022/04/08 05:24:24;;;;;;;1.40;0.70;;;10.80;38.10;;;;;;5052672;28;20587;-33
2022/04/08 05:26:50;;;;;;;1.40;0.73;;;10.70;38.90;;;;;;5052360;28;20228;-33
2022/04/08 05:29:16;;;;;;;1.40;1.00;;;10.70;38.70;;;;;;5052619;28;20189;-34
2022/04/08 05:31:41;;;;;;;1.20;0.50;;;10.70;38.40;;;;;;5051015;28;20184;-33
2022/04/08 05:34:07;;;;;;;1.47;0.63;;;10.70;38.30;;;;;;5053044;28;20193;-34
2022/04/08 05:36:33;;;;;;;1.60;0.90;;;10.50;38.20;;;;;;5052217;28;20211;-34
2022/04/08 05:38:58;;;;;;;1.70;1.23;;;10.50;38.60;;;;;;5052287;28;20590;-34
2022/04/08 05:41:24;;;;;;;1.70;1.00;;;10.50;38.30;;;;;;5052306;28;20255;-34
2022/04/08 05:43:50;;;;;;;1.30;0.57;;;10.70;38.00;;;;;;5051930;28;20551;-33
2022/04/08 05:46:15;;;;;;;1.70;1.20;;;10.80;37.80;;;;;;5052090;28;20173;-34
2022/04/08 05:48:41;;;;;;;2.30;1.27;;;10.80;37.70;;;;;;5052136;28;20205;-34
2022/04/08 05:51:07;;;;;;;1.60;0.90;;;10.90;37.50;;;;;;5051873;28;20921;-34
2022/04/08 05:53:33;;;;;;;1.30;0.87;;;10.90;37.10;;;;;;5051496;28;20526;-35
2022/04/08 05:55:59;;;;;;;1.80;1.17;;;10.80;37.20;;;;;;5052110;28;20517;-36
2022/04/08 05:58:26;;;;;;;2.20;0.98;;;10.90;37.10;;;;;;5051729;28;20169;-36
2022/04/08 06:00:52;;;;;;;2.80;1.15;;;11.00;37.50;;;;;;5051232;28;20269;-36
2022/04/08 06:03:18;;;;;;;1.85;1.33;;;11.00;36.80;;;;;;5050780;28;20595;-36
2022/04/08 06:05:43;;;;;;;2.35;1.30;;;11.00;37.00;;;;;;5051794;28;20647;-35
2022/04/08 06:08:09;;;;;;;1.50;1.00;;;10.90;37.10;;;;;;5051873;28;20181;-36
2022/04/08 06:10:36;;;;;;;1.73;1.17;;;11.00;37.30;;;;;;5051823;28;20180;-36
2022/04/08 06:13:02;;;;;;;1.70;1.30;;;11.10;37.10;;;;;;5051927;28;20201;-34
2022/04/08 06:15:28;;;;;;;1.70;0.90;;;11.10;37.10;;;;;;5051522;28;20165;-33
2022/04/08 06:17:55;;;;;;;1.45;0.73;;;11.20;36.60;;;;;;5051768;28;20248;-33
2022/04/08 06:20:22;;;;;;;1.45;0.80;;;11.20;37.00;;;;;;5051657;28;20244;-33
2022/04/08 06:22:48;;;;;;;1.20;0.60;;;11.20;36.60;;;;;;5051581;28;20566;-34
2022/04/08 06:25:21;;;;;;;1.30;0.65;;;11.20;36.30;;;;;;5051706;28;20176;-34
2022/04/08 06:27:58;;;;;;;1.20;0.73;;;11.10;36.40;;;;;;5051698;28;20164;-34
2022/04/08 06:30:25;;;;;;;1.35;0.70;;;11.30;36.70;;;;;;5051152;28;20813;-34
2022/04/08 06:32:51;;;;;;;1.75;1.10;;;11.30;36.20;;;;;;5051655;28;20193;-34
2022/04/08 06:35:16;;;;;;;1.40;0.90;;;11.30;36.40;;;;;;5051796;28;20173;-34
2022/04/08 06:37:42;;;;;;;1.63;1.10;;;11.40;35.90;;;;;;5051613;28;20534;-34
2022/04/08 06:40:10;;;;;;;1.47;0.60;;;11.30;36.00;;;;;;5051758;28;20509;-34
2022/04/08 06:42:36;;;;;;;3.65;1.20;;;11.50;36.10;;;;;;5051021;28;20250;-34
2022/04/08 06:45:03;;;;;;;2.78;1.15;;;11.50;35.90;;;;;;5051679;28;20162;-34
2022/04/08 06:47:29;;;;;;;1.30;0.70;;;11.50;36.30;;;;;;5051500;28;20683;-34
2022/04/08 06:49:54;;;;;;;1.33;0.90;;;11.50;36.20;;;;;;5051542;28;20184;-34
2022/04/08 06:52:20;;;;;;;1.50;1.00;;;11.50;36.10;;;;;;5051152;28;20447;-34
2022/04/08 06:54:46;;;;;;;2.00;1.30;;;11.50;36.10;;;;;;5051801;28;20581;-34
2022/04/08 06:57:12;;;;;;;1.40;0.90;;;11.50;36.50;;;;;;5051428;28;20212;-34
2022/04/08 06:59:40;;;;;;;1.80;1.10;;;11.50;36.30;;;;;;5051360;28;20906;-34
2022/04/08 07:02:06;;;;;;;3.38;1.13;;;11.60;35.90;;;;;;5051400;28;20419;-34
2022/04/08 07:04:32;;;;;;;1.40;0.90;;;11.60;36.00;;;;;;5051292;28;20205;-33
2022/04/08 07:06:58;;;;;;;2.50;1.20;;;11.60;36.20;;;;;;5051413;28;20181;-34
2022/04/08 07:09:24;;;;;;;1.73;1.20;;;11.80;35.80;;;;;;5052815;28;20542;-34
2022/04/08 07:11:49;;;;;;;1.40;0.90;;;11.70;35.00;;;;;;5054339;28;20184;-33
2022/04/08 07:14:15;;;;;;;1.43;0.90;;;11.50;35.20;;;;;;5054935;28;20201;-34
2022/04/08 07:16:43;;;;;;;1.50;1.20;;;11.50;35.10;;;;;;5055013;28;20229;-34
2022/04/08 07:19:10;;;;;;;3.85;1.33;;;11.30;35.10;;;;;;5055096;28;20422;-34
2022/04/08 07:21:37;;;;;;;1.30;0.80;;;11.50;36.40;;;;;;5054575;28;20177;-34
2022/04/08 07:24:03;;;;;;;2.40;1.08;;;11.80;35.30;;;;;;5054643;28;20181;-34
2022/04/08 07:26:29;;;;;;;1.85;1.30;;;11.90;34.00;;;;;;5054914;28;20185;-34
2022/04/08 07:28:55;;;;;;;1.30;0.90;;;11.90;34.90;;;;;;5054579;28;20180;-34
2022/04/08 07:31:21;;;;;;;1.20;0.70;;;12.10;34.70;;;;;;5054710;28;20824;-34
2022/04/08 07:33:47;;;;;;;2.58;1.02;;;12.30;32.80;;;;;;5054532;28;20658;-34
2022/04/08 07:36:13;;;;;;;9.45;1.88;;;12.10;32.30;;;;;;5054652;28;20197;-34
2022/04/08 07:38:39;;;;;;;1.60;1.10;;;11.90;32.60;;;;;;5054792;28;20540;-34
2022/04/08 07:41:05;;;;;;;1.10;0.50;;;12.10;32.40;;;;;;5053981;28;20956;-34
2022/04/08 07:43:30;;;;;;;1.30;0.70;;;12.20;31.60;;;;;;5054302;28;20440;-34
2022/04/08 07:45:56;;;;;;;1.67;0.80;;;12.50;32.30;;;;;;5054452;28;20495;-34
2022/04/08 07:48:22;;;;;;;1.20;0.60;;;12.90;31.10;;;;;;5054336;28;20894;-34
2022/04/08 07:50:48;;;;;;;2.10;0.87;;;13.10;30.30;;;;;;5054248;28;20595;-34
2022/04/08 07:53:13;;;;;;;2.07;1.40;;;13.10;30.30;;;;;;5054139;28;20416;-34
2022/04/08 07:55:39;;;;;;;1.30;0.87;;;13.10;30.80;;;;;;5054045;28;20287;-34
2022/04/08 07:58:05;;;;;;;1.30;0.60;;;13.10;30.00;;;;;;5052507;28;20219;-34
2022/04/08 08:00:32;;;;;;;2.10;0.90;;;12.10;28.80;;;;;;5053701;28;20219;-37
2022/04/08 08:02:58;;;;;;;1.40;1.15;;;12.70;30.20;;;;;;5053986;28;20288;-37
2022/04/08 08:05:26;;;;;;;1.50;0.68;;;12.80;30.40;;;;;;5054155;28;20201;-34
2022/04/08 08:07:54;;;;;;;1.30;0.70;;;12.80;30.30;;;;;;5054192;28;20238;-34
2022/04/08 08:10:21;;;;;;;1.85;0.70;;;12.70;30.30;;;;;;5053943;28;20173;-34
2022/04/08 08:12:47;;;;;;;1.48;0.93;;;12.80;29.90;;;;;;5053726;28;20198;-34
2022/04/08 08:15:13;;;;;;;3.15;1.35;;;12.70;30.40;;;;;;5053770;28;20176;-34
2022/04/08 08:17:41;;;;;;;1.50;0.95;;;12.90;29.20;;;;;;5053695;28;20316;-34
2022/04/08 08:20:08;;;;;;;1.20;0.60;;;12.80;30.10;;;;;;5053654;28;20165;-34
2022/04/08 08:22:34;;;;;;;1.30;0.60;;;13.00;29.70;;;;;;5053650;28;20197;-34
2022/04/08 08:25:00;;;;;;;2.28;1.35;;;12.90;29.00;;;;;;5053866;28;20170;-34
2022/04/08 08:27:26;;;;;;;3.58;0.60;;;13.00;29.20;;;;;;5053473;28;20544;-34
2022/04/08 08:29:52;;;;;;;1.40;0.70;;;12.90;29.50;;;;;;5053565;28;20177;-34
2022/04/08 08:32:17;;;;;;;1.37;0.70;;;12.80;27.60;;;;;;5053094;28;20583;-34
2022/04/08 08:34:43;;;;;;;1.30;0.90;;;12.80;27.90;;;;;;5053444;28;20178;-34
2022/04/08 08:37:09;;;;;;;1.67;0.90;;;12.80;28.30;;;;;;5052397;28;20520;-34
2022/04/08 08:39:35;;;;;;;1.30;0.70;;;13.00;26.90;;;;;;5053019;28;20789;-34
2022/04/08 08:42:00;;;;;;;2.33;1.13;;;12.90;27.50;;;;;;5053238;28;20350;-34
2022/04/08 08:44:26;;;;;;;1.33;0.63;;;12.80;26.40;;;;;;5053080;28;20704;-34
2022/04/08 08:46:57;;;;;;;3.00;0.60;;;12.60;27.30;;;;;;5053359;28;20180;-34
2022/04/08 08:49:25;;;;;;;2.58;0.95;;;12.70;27.50;;;;;;5053144;28;20223;-34
2022/04/08 08:52:01;;;;;;;2.90;0.80;;;12.60;28.20;;;;;;5052837;28;20227;-34
2022/04/08 08:54:26;;;;;;;1.33;0.70;;;12.80;29.30;;;;;;5052963;28;20197;-34
2022/04/08 08:56:52;;;;;;;1.83;1.10;;;13.00;28.10;;;;;;5052838;28;20205;-34
2022/04/08 08:59:18;;;;;;;1.27;0.83;;;12.90;28.20;;;;;;5053290;28;20181;-34
2022/04/08 09:01:44;;;;;;;3.63;0.80;;;12.90;27.30;;;;;;5052581;28;20619;-34
2022/04/08 09:04:09;;;;;;;4.37;1.07;;;13.00;27.00;;;;;;5052726;28;20197;-34
2022/04/08 09:06:41;;;;;;;1.50;0.87;;;13.60;27.30;;;;;;5052583;28;20177;-34
2022/04/08 09:09:07;;;;;;;2.40;0.88;;;13.50;26.40;;;;;;5052743;28;20169;-34
2022/04/08 09:11:33;;;;;;;2.10;1.30;;;13.50;25.90;;;;;;5052444;28;20231;-34
2022/04/08 09:14:04;;;;;;;1.67;0.90;;;13.40;26.50;;;;;;5052815;28;20439;-34
2022/04/08 09:16:33;;;;;;;1.45;0.80;;;13.40;26.80;;;;;;5052871;28;20189;-33
2022/04/08 09:18:59;;;;;;;2.47;0.88;;;13.40;26.50;;;;;;5052928;28;20178;-34
2022/04/08 09:21:25;;;;;;;1.65;1.42;;;13.50;27.10;;;;;;5052053;28;20165;-34
2022/04/08 09:23:51;;;;;;;1.73;0.80;;;13.40;27.60;;;;;;5052180;28;20193;-34
2022/04/08 09:26:17;;;;;;;1.40;0.93;;;13.50;27.40;;;;;;5050960;28;20681;-34
2022/04/08 09:28:45;;;;;;;1.38;0.80;;;13.50;28.20;;;;;;5052061;28;20690;-34
2022/04/08 09:31:18;;;;;;;1.50;1.37;;;13.60;28.50;;;;;;5052387;28;20177;-34
2022/04/08 09:33:49;;;;;;;2.05;0.70;;;14.00;27.90;;;;;;5052228;28;20431;-34
2022/04/08 09:36:26;;;;;;;1.45;0.70;;;14.20;28.20;;;;;;5052248;28;20605;-34
2022/04/08 09:38:52;;;;;;;1.42;0.70;;;14.50;25.50;;;;;;5052010;28;20165;-36
2022/04/08 09:41:18;;;;;;;1.50;0.60;;;14.50;25.00;;;;;;5051586;28;20188;-34
2022/04/08 09:43:43;;;;;;;4.10;1.33;;;14.70;25.20;;;;;;5052097;28;20201;-33
2022/04/08 09:46:21;;;;;;;1.70;0.60;;;14.90;24.70;;;;;;5052284;28;20528;-34
2022/04/08 09:48:48;;;;;;;1.75;1.08;;;14.90;24.00;;;;;;5052321;28;20260;-34
2022/04/08 09:51:21;;;;;;;2.95;0.98;;;14.90;23.20;;;;;;5052136;28;20181;-34
2022/04/08 09:53:58;;;;;;;1.42;0.80;;;14.70;23.00;;;;;;5051833;28;20197;-34
2022/04/08 09:56:27;;;;;;;1.75;1.13;;;14.80;23.40;;;;;;5051908;28;20212;-34
2022/04/08 09:59:15;;;;;;;1.40;1.00;;;14.80;23.00;;;;;;5052094;28;20181;-34
2022/04/08 10:01:45;;;;;;;1.65;0.95;;;14.70;22.50;;;;;;5051718;28;20170;-34
2022/04/08 10:04:11;;;;;;;1.55;0.80;;;14.90;23.70;;;;;;5051752;28;20199;-34
2022/04/08 10:06:39;;;;;;;1.50;0.95;;;15.10;23.60;;;;;;5052116;28;20260;-34
2022/04/08 10:09:10;;;;;;;3.30;0.90;;;15.20;24.20;;;;;;5052128;28;20180;-34
2022/04/08 10:12:09;;;;;;;1.40;0.73;;;15.50;23.90;;;;;;5051515;28;20185;-34
2022/04/08 10:14:53;;;;;;;1.63;0.80;;;15.70;21.90;;;;;;5051660;28;20186;-34
2022/04/08 10:17:19;;;;;;;3.72;0.80;;;15.90;22.00;;;;;;5052090;28;20239;-34
2022/04/08 10:19:45;;;;;;;1.77;1.10;;;15.70;22.20;;;;;;5051679;28;20177;-34
2022/04/08 10:22:20;;;;;;;1.40;1.00;;;15.60;22.20;;;;;;5051599;28;20411;-35
2022/04/08 10:24:56;;;;;;;2.20;0.95;;;15.50;23.40;;;;;;5051664;28;20542;-36
2022/04/08 10:27:36;;;;;;;2.40;1.20;;;15.50;22.60;;;;;;5051709;28;20173;-35
2022/04/08 10:30:14;;;;;;;1.50;1.02;;;15.20;23.50;;;;;;5051954;28;20157;-35
2022/04/08 10:32:40;;;;;;;1.52;0.60;;;14.90;23.90;;;;;;5051508;28;20205;-35
2022/04/08 10:35:17;;;;;;;2.05;1.25;;;14.90;24.50;;;;;;5051645;28;20658;-36
2022/04/08 10:37:57;;;;;;;1.63;0.85;;;15.00;24.00;;;;;;5051519;28;20288;-36
2022/04/08 10:40:39;;;;;;;1.50;0.70;;;15.10;24.60;;;;;;5051478;28;20179;-36
2022/04/08 10:43:10;;;;;;;1.45;0.85;;;15.20;24.30;;;;;;5050881;28;20223;-35
2022/04/08 10:45:37;;;;;;;1.70;1.15;;;15.00;24.70;;;;;;5054702;28;20169;-36
2022/04/08 10:48:14;;;;;;;1.90;1.42;;;15.10;26.00;;;;;;5055479;28;20166;-36
2022/04/08 10:50:40;;;;;;;2.60;1.00;;;15.10;24.40;;;;;;5055396;28;20177;-36
2022/04/08 10:53:07;;;;;;;5.55;1.30;;;15.00;25.20;;;;;;5055422;28;20224;-35
2022/04/08 10:55:46;;;;;;;1.90;1.20;;;14.90;25.30;;;;;;5055232;28;20651;-35
2022/04/08 10:58:12;;;;;;;1.55;1.00;;;14.60;25.00;;;;;;5055249;28;20227;-35
2022/04/08 11:00:41;;;;;;;1.93;1.27;;;14.60;25.60;;;;;;5055258;28;20166;-35
2022/04/08 11:03:11;;;;;;;1.90;1.33;;;14.60;26.70;;;;;;5055361;28;20431;-36
2022/04/08 11:05:38;;;;;;;1.75;1.25;;;14.60;26.10;;;;;;5055101;28;20574;-36
2022/04/08 11:08:05;;;;;;;2.00;1.20;;;14.60;26.40;;;;;;5055330;28;20169;-36
2022/04/08 11:10:31;;;;;;;3.42;1.15;;;14.80;26.50;;;;;;5055134;28;20585;-36
2022/04/08 11:13:00;;;;;;;5.43;1.08;;;15.00;26.20;;;;;;5054858;28;20197;-36
2022/04/08 11:15:28;;;;;;;1.95;1.35;;;15.00;26.10;;;;;;5054397;28;20182;-36
2022/04/08 11:17:54;;;;;;;1.38;0.85;;;15.10;26.10;;;;;;5055049;28;20178;-35
2022/04/08 11:20:21;;;;;;;1.87;1.00;;;15.40;26.60;;;;;;5054836;28;20169;-34
2022/04/08 11:22:52;;;;;;;2.25;1.35;;;15.30;25.80;;;;;;5054447;28;20431;-34
2022/04/08 11:25:23;;;;;;;1.30;1.00;;;15.40;26.10;;;;;;5054709;28;20554;-34
2022/04/08 11:28:00;;;;;;;2.33;0.98;;;15.40;24.90;;;;;;5054680;28;20256;-34
2022/04/08 11:30:26;;;;;;;2.90;1.17;;;15.40;25.40;;;;;;5054500;28;20181;-34
2022/04/08 11:32:52;;;;;;;2.45;1.23;;;15.30;25.50;;;;;;5054452;28;20276;-34
2022/04/08 11:35:18;;;;;;;3.63;1.70;;;15.20;25.10;;;;;;5054479;28;20319;-34
2022/04/08 11:37:44;;;;;;;2.78;0.85;;;15.40;26.60;;;;;;5054367;28;20258;-34
2022/04/08 11:40:16;;;;;;;1.70;1.40;;;15.60;24.80;;;;;;5054606;28;20185;-34
2022/04/08 11:42:46;;;;;;;2.03;1.45;;;15.60;24.90;;;;;;5054322;28;20267;-34
2022/04/08 11:45:13;;;;;;;1.58;1.20;;;15.60;25.30;;;;;;5054414;28;20671;-34
2022/04/08 11:47:46;;;;;;;1.60;0.90;;;15.70;25.90;;;;;;5054478;28;20173;-34
2022/04/08 11:50:12;;;;;;;2.55;1.45;;;15.70;25.30;;;;;;5054250;28;20236;-34
2022/04/08 11:52:38;;;;;;;1.87;1.30;;;15.70;25.50;;;;;;5053491;28;20193;-34
2022/04/08 11:55:09;;;;;;;2.90;1.23;;;15.90;25.40;;;;;;5053608;28;20419;-34
2022/04/08 11:57:38;;;;;;;1.80;1.45;;;15.80;24.90;;;;;;5052465;28;20590;-34
2022/04/08 12:00:08;;;;;;;1.75;1.30;;;15.60;25.20;;;;;;5053876;28;20749;-34
2022/04/08 12:02:36;;;;;;;1.50;0.90;;;15.70;25.60;;;;;;5054016;28;20194;-34
2022/04/08 12:05:02;;;;;;;2.45;1.33;;;15.80;24.70;;;;;;5053940;28;20234;-34
2022/04/08 12:07:29;;;;;;;1.80;1.10;;;15.80;25.10;;;;;;5052608;28;20180;-34
2022/04/08 12:09:56;;;;;;;1.60;0.93;;;15.70;24.90;;;;;;5054397;28;20231;-37
2022/04/08 12:12:26;;;;;;;1.40;0.80;;;15.60;25.70;;;;;;5053487;28;20538;-34
2022/04/08 12:14:52;;;;;;;2.60;1.50;;;15.70;26.00;;;;;;5053809;28;20181;-34
2022/04/08 12:17:19;;;;;;;2.85;1.00;;;15.90;25.70;;;;;;5053486;28;20662;-34
2022/04/08 12:19:47;;;;;;;1.88;0.95;;;15.80;25.20;;;;;;5054096;28;20177;-34
2022/04/08 12:22:15;;;;;;;2.55;1.25;;;15.70;25.80;;;;;;5052308;28;20231;-34
2022/04/08 12:24:44;;;;;;;3.78;1.08;;;15.90;26.30;;;;;;5053632;28;20169;-34
2022/04/08 12:27:22;;;;;;;4.95;2.13;;;16.10;25.30;;;;;;5053503;28;20215;-34
2022/04/08 12:30:10;;;;;;;1.73;1.00;;;16.00;24.20;;;;;;5053518;28;20642;-34
2022/04/08 12:32:43;;;;;;;2.47;1.67;;;15.90;25.50;;;;;;5053398;28;20246;-34
2022/04/08 12:35:11;;;;;;;3.60;1.10;;;15.70;24.30;;;;;;5053719;28;20189;-34
2022/04/08 12:37:37;;;;;;;2.42;1.45;;;15.60;25.10;;;;;;5053360;28;20211;-34
2022/04/08 12:40:06;;;;;;;1.85;1.23;;;15.70;24.80;;;;;;5053233;28;20643;-34
2022/04/08 12:42:34;;;;;;;2.33;1.48;;;15.70;24.60;;;;;;5052942;28;20239;-34
2022/04/08 12:45:00;;;;;;;2.15;1.38;;;15.70;25.00;;;;;;5053241;28;20215;-34
2022/04/08 12:47:26;;;;;;;1.97;1.43;;;15.70;24.60;;;;;;5053196;28;20197;-34
2022/04/08 12:49:51;;;;;;;1.80;1.30;;;15.60;24.00;;;;;;5053154;28;20259;-34